createdAt,value
2022-10-07T00:00:52.153Z,1020.18
2022-10-07T00:01:31.038Z,1020.18
2022-10-07T00:02:31.070Z,1020.15
2022-10-07T00:03:30.952Z,1020.18
2022-10-07T00:04:51.915Z,1020.17
2022-10-07T00:05:51.875Z,1020.16
2022-10-07T00:06:30.858Z,1020.13
2022-10-07T00:07:30.810Z,1020.16
2022-10-07T00:08:30.774Z,1020.16
2022-10-07T00:09:51.736Z,1020.13
2022-10-07T00:10:51.718Z,1020.14
2022-10-07T00:11:30.678Z,1020.12
2022-10-07T00:12:30.635Z,1020.12
2022-10-07T00:13:30.615Z,1020.11
2022-10-07T00:14:51.562Z,1020.06
2022-10-07T00:15:51.521Z,1020.09
2022-10-07T00:16:30.574Z,1020.05
2022-10-07T00:17:30.449Z,1020.05
2022-10-07T00:18:30.430Z,1020.05
2022-10-07T00:19:51.384Z,1020.01
2022-10-07T00:20:51.346Z,1019.99
2022-10-07T00:21:30.313Z,1020.00
2022-10-07T00:22:30.277Z,1019.98
2022-10-07T00:23:30.239Z,1019.98
2022-10-07T00:24:51.207Z,1019.95
2022-10-07T00:25:51.172Z,1019.93
2022-10-07T00:26:30.146Z,1019.90
2022-10-07T00:27:30.108Z,1019.92
2022-10-07T00:28:30.167Z,1019.86
2022-10-07T00:29:51.025Z,1019.87
2022-10-07T00:30:51.055Z,1019.89
2022-10-07T00:31:29.961Z,1019.88
2022-10-07T00:32:29.924Z,1019.86
2022-10-07T00:33:29.888Z,1019.82
2022-10-07T00:34:50.850Z,1019.84
2022-10-07T00:35:50.827Z,1019.82
2022-10-07T00:36:29.781Z,1019.83
2022-10-07T00:37:29.754Z,1019.81
2022-10-07T00:38:29.718Z,1019.80
2022-10-07T00:39:50.681Z,1019.83
2022-10-07T00:40:50.636Z,1019.84
2022-10-07T00:41:29.608Z,1019.80
2022-10-07T00:42:29.570Z,1019.85
2022-10-07T00:43:29.552Z,1019.83
2022-10-07T00:44:50.519Z,1019.83
2022-10-07T00:45:50.527Z,1019.81
2022-10-07T00:46:29.435Z,1019.79
2022-10-07T00:47:29.411Z,1019.76
2022-10-07T00:48:29.357Z,1019.76
2022-10-07T00:49:50.323Z,1019.77
2022-10-07T00:50:50.360Z,1019.75
2022-10-07T00:51:29.267Z,1019.75
2022-10-07T00:52:29.229Z,1019.71
2022-10-07T00:53:29.182Z,1019.73
2022-10-07T00:54:50.150Z,1019.67
2022-10-07T00:55:50.111Z,1019.70
2022-10-07T00:56:29.070Z,1019.70
2022-10-07T00:57:29.036Z,1019.71
2022-10-07T00:58:29.002Z,1019.72
2022-10-07T00:59:50.247Z,1019.68
2022-10-07T01:00:49.985Z,1019.69
2022-10-07T01:01:28.949Z,1019.66
2022-10-07T01:02:28.970Z,1019.69
2022-10-07T01:03:28.840Z,1019.66
2022-10-07T01:04:49.808Z,1019.70
2022-10-07T01:05:49.750Z,1019.65
2022-10-07T01:06:28.722Z,1019.69
2022-10-07T01:07:28.685Z,1019.63
2022-10-07T01:08:28.652Z,1019.59
2022-10-07T01:09:49.626Z,1019.58
2022-10-07T01:10:49.570Z,1019.61
2022-10-07T01:11:28.543Z,1019.55
2022-10-07T01:12:28.504Z,1019.56
2022-10-07T01:13:28.468Z,1019.56
2022-10-07T01:14:49.426Z,1019.53
2022-10-07T01:15:49.393Z,1019.51
2022-10-07T01:16:28.447Z,1019.50
2022-10-07T01:17:28.329Z,1019.49
2022-10-07T01:18:28.287Z,1019.47
2022-10-07T01:19:49.253Z,1019.47
2022-10-07T01:20:49.220Z,1019.47
2022-10-07T01:21:28.184Z,1019.48
2022-10-07T01:22:28.209Z,1019.48
2022-10-07T01:23:28.114Z,1019.48
2022-10-07T01:24:49.097Z,1019.44
2022-10-07T01:25:49.040Z,1019.41
2022-10-07T01:26:28.004Z,1019.41
2022-10-07T01:27:27.965Z,1019.39
2022-10-07T01:28:27.997Z,1019.41
2022-10-07T01:29:48.906Z,1019.35
2022-10-07T01:30:48.918Z,1019.33
2022-10-07T01:31:27.827Z,1019.34
2022-10-07T01:32:27.792Z,1019.33
2022-10-07T01:33:27.769Z,1019.31
2022-10-07T01:34:48.715Z,1019.35
2022-10-07T01:35:48.687Z,1019.30
2022-10-07T01:36:27.646Z,1019.27
2022-10-07T01:37:27.636Z,1019.30
2022-10-07T01:38:27.575Z,1019.28
2022-10-07T01:39:48.538Z,1019.25
2022-10-07T01:40:48.502Z,1019.22
2022-10-07T01:41:27.470Z,1019.25
2022-10-07T01:42:27.443Z,1019.25
2022-10-07T01:43:27.410Z,1019.25
2022-10-07T01:44:48.358Z,1019.24
2022-10-07T01:45:48.345Z,1019.20
2022-10-07T01:46:27.372Z,1019.19
2022-10-07T01:47:27.325Z,1019.13
2022-10-07T01:48:27.218Z,1019.12
2022-10-07T01:49:48.177Z,1019.10
2022-10-07T01:50:48.140Z,1019.07
2022-10-07T01:51:27.117Z,1019.08
2022-10-07T01:52:27.073Z,1019.05
2022-10-07T01:53:27.040Z,1019.05
2022-10-07T01:54:48.008Z,1019.01
2022-10-07T01:55:47.979Z,1018.96
2022-10-07T01:56:26.939Z,1018.98
2022-10-07T01:57:26.896Z,1018.97
2022-10-07T01:58:26.865Z,1018.95
2022-10-07T01:59:47.829Z,1018.96
2022-10-07T02:00:47.802Z,1018.95
2022-10-07T02:01:26.825Z,1018.95
2022-10-07T02:02:26.717Z,1018.92
2022-10-07T02:03:26.769Z,1018.91
2022-10-07T02:04:47.641Z,1018.89
2022-10-07T02:05:47.614Z,1018.87
2022-10-07T02:06:26.584Z,1018.90
2022-10-07T02:07:26.548Z,1018.90
2022-10-07T02:08:26.503Z,1018.94
2022-10-07T02:09:47.472Z,1018.83
2022-10-07T02:10:47.429Z,1018.82
2022-10-07T02:11:26.401Z,1018.81
2022-10-07T02:12:26.367Z,1018.80
2022-10-07T02:13:26.331Z,1018.81
2022-10-07T02:14:47.291Z,1018.79
2022-10-07T02:15:47.324Z,1018.78
2022-10-07T02:16:26.269Z,1018.76
2022-10-07T02:17:26.182Z,1018.80
2022-10-07T02:18:26.145Z,1018.78
2022-10-07T02:19:47.119Z,1018.74
2022-10-07T02:20:47.073Z,1018.73
2022-10-07T02:21:26.039Z,1018.75
2022-10-07T02:22:26.000Z,1018.72
2022-10-07T02:23:25.967Z,1018.70
2022-10-07T02:24:46.929Z,1018.69
2022-10-07T02:25:46.893Z,1018.67
2022-10-07T02:26:25.861Z,1018.65
2022-10-07T02:27:25.828Z,1018.64
2022-10-07T02:28:25.879Z,1018.62
2022-10-07T02:29:46.747Z,1018.61
2022-10-07T02:30:46.772Z,1018.58
2022-10-07T02:31:25.786Z,1018.60
2022-10-07T02:32:25.648Z,1018.53
2022-10-07T02:33:25.611Z,1018.53
2022-10-07T02:34:46.564Z,1018.53
2022-10-07T02:35:46.643Z,1018.51
2022-10-07T02:36:25.498Z,1018.50
2022-10-07T02:37:25.465Z,1018.48
2022-10-07T02:38:25.426Z,1018.50
2022-10-07T02:39:46.392Z,1018.52
2022-10-07T02:40:46.351Z,1018.47
2022-10-07T02:41:25.322Z,1018.50
2022-10-07T02:42:25.297Z,1018.47
2022-10-07T02:43:25.256Z,1018.45
2022-10-07T02:44:46.207Z,1018.48
2022-10-07T02:45:46.190Z,1018.47
2022-10-07T02:46:25.192Z,1018.47
2022-10-07T02:47:25.112Z,1018.40
2022-10-07T02:48:25.087Z,1018.41
2022-10-07T02:49:46.045Z,1018.38
2022-10-07T02:50:45.994Z,1018.37
2022-10-07T02:51:24.968Z,1018.35
2022-10-07T02:52:24.951Z,1018.35
2022-10-07T02:53:24.891Z,1018.33
2022-10-07T02:54:45.846Z,1018.32
2022-10-07T02:55:45.816Z,1018.26
2022-10-07T02:56:24.780Z,1018.29
2022-10-07T02:57:24.741Z,1018.33
2022-10-07T02:58:24.726Z,1018.27
2022-10-07T02:59:45.675Z,1018.24
2022-10-07T03:00:45.644Z,1018.24
2022-10-07T03:01:24.653Z,1018.24
2022-10-07T03:02:24.566Z,1018.23
2022-10-07T03:03:24.612Z,1018.24
2022-10-07T03:04:45.496Z,1018.23
2022-10-07T03:05:45.463Z,1018.23
2022-10-07T03:06:24.433Z,1018.23
2022-10-07T03:07:24.390Z,1018.19
2022-10-07T03:08:24.350Z,1018.19
2022-10-07T03:09:45.312Z,1018.18
2022-10-07T03:10:45.270Z,1018.21
2022-10-07T03:11:24.241Z,1018.16
2022-10-07T03:12:24.209Z,1018.18
2022-10-07T03:13:24.170Z,1018.18
2022-10-07T03:14:45.138Z,1018.18
2022-10-07T03:15:45.161Z,1018.15
2022-10-07T03:16:24.133Z,1018.17
2022-10-07T03:17:24.026Z,1018.16
2022-10-07T03:18:23.987Z,1018.17
2022-10-07T03:19:44.955Z,1018.15
2022-10-07T03:20:44.918Z,1018.14
2022-10-07T03:21:23.894Z,1018.14
2022-10-07T03:22:23.860Z,1018.10
2022-10-07T03:23:23.805Z,1018.09
2022-10-07T03:24:44.778Z,1018.06
2022-10-07T03:25:44.731Z,1018.02
2022-10-07T03:26:23.697Z,1018.04
2022-10-07T03:27:23.664Z,1018.02
2022-10-07T03:28:23.666Z,1018.05
2022-10-07T03:29:44.585Z,1018.03
2022-10-07T03:30:44.550Z,1018.06
2022-10-07T03:31:23.589Z,1018.03
2022-10-07T03:32:23.487Z,1018.06
2022-10-07T03:33:24.273Z,1018.03
2022-10-07T03:34:44.409Z,1018.04
2022-10-07T03:35:44.376Z,1018.05
2022-10-07T03:36:23.347Z,1018.06
2022-10-07T03:37:23.303Z,1018.06
2022-10-07T03:38:23.264Z,1018.08
2022-10-07T03:39:44.229Z,1018.06
2022-10-07T03:40:44.192Z,1018.04
2022-10-07T03:41:23.159Z,1018.06
2022-10-07T03:42:23.140Z,1018.04
2022-10-07T03:43:23.094Z,1018.04
2022-10-07T03:44:44.042Z,1017.98
2022-10-07T03:45:44.008Z,1018.02
2022-10-07T03:46:23.012Z,1018.01
2022-10-07T03:47:22.947Z,1017.98
2022-10-07T03:48:22.907Z,1018.00
2022-10-07T03:49:43.863Z,1018.02
2022-10-07T03:50:43.829Z,1018.01
2022-10-07T03:51:22.826Z,1018.02
2022-10-07T03:52:22.794Z,1018.00
2022-10-07T03:53:22.726Z,1017.99
2022-10-07T03:54:43.684Z,1018.00
2022-10-07T03:55:43.652Z,1017.97
2022-10-07T03:56:22.613Z,1017.98
2022-10-07T03:57:22.584Z,1017.94
2022-10-07T03:58:22.543Z,1017.93
2022-10-07T03:59:43.502Z,1018.01
2022-10-07T04:00:44.268Z,1017.93
2022-10-07T04:01:22.512Z,1017.98
2022-10-07T04:02:22.399Z,1017.96
2022-10-07T04:03:22.390Z,1017.94
2022-10-07T04:04:43.325Z,1017.95
2022-10-07T04:05:43.287Z,1017.93
2022-10-07T04:06:22.256Z,1017.88
2022-10-07T04:07:22.217Z,1017.87
2022-10-07T04:08:22.196Z,1017.88
2022-10-07T04:09:43.145Z,1017.84
2022-10-07T04:10:43.102Z,1017.86
2022-10-07T04:11:22.078Z,1017.88
2022-10-07T04:12:22.055Z,1017.86
2022-10-07T04:13:21.999Z,1017.80
2022-10-07T04:14:42.962Z,1017.82
2022-10-07T04:15:42.932Z,1017.79
2022-10-07T04:16:22.044Z,1017.81
2022-10-07T04:17:21.865Z,1017.83
2022-10-07T04:18:21.824Z,1017.76
2022-10-07T04:19:42.778Z,1017.78
2022-10-07T04:20:42.744Z,1017.73
2022-10-07T04:21:21.725Z,1017.74
2022-10-07T04:22:21.672Z,1017.77
2022-10-07T04:23:21.639Z,1017.75
2022-10-07T04:24:42.607Z,1017.76
2022-10-07T04:25:42.568Z,1017.75
2022-10-07T04:26:21.528Z,1017.76
2022-10-07T04:27:47.006Z,1017.72
2022-10-07T04:28:21.476Z,1017.71
2022-10-07T04:29:42.416Z,1017.71
2022-10-07T04:30:42.466Z,1017.72
2022-10-07T04:31:21.413Z,1017.69
2022-10-07T04:32:21.315Z,1017.71
2022-10-07T04:33:21.272Z,1017.70
2022-10-07T04:34:42.229Z,1017.68
2022-10-07T04:35:42.197Z,1017.68
2022-10-07T04:36:21.165Z,1017.67
2022-10-07T04:37:21.129Z,1017.66
2022-10-07T04:38:23.313Z,1017.63
2022-10-07T04:39:59.637Z,1017.66
2022-10-07T04:40:42.019Z,1017.62
2022-10-07T04:41:20.985Z,1017.64
2022-10-07T04:42:20.950Z,1017.62
2022-10-07T04:43:20.934Z,1017.62
2022-10-07T04:44:41.876Z,1017.63
2022-10-07T04:45:41.837Z,1017.57
2022-10-07T04:46:20.864Z,1017.59
2022-10-07T04:47:20.771Z,1017.57
2022-10-07T04:48:20.738Z,1017.57
2022-10-07T04:49:41.691Z,1017.55
2022-10-07T04:50:41.652Z,1017.54
2022-10-07T04:51:20.618Z,1017.55
2022-10-07T04:52:20.584Z,1017.52
2022-10-07T04:53:20.545Z,1017.52
2022-10-07T04:54:41.509Z,1017.51
2022-10-07T04:55:41.481Z,1017.51
2022-10-07T04:56:20.442Z,1017.50
2022-10-07T04:57:20.403Z,1017.52
2022-10-07T04:58:20.376Z,1017.46
2022-10-07T04:59:43.074Z,1017.48
2022-10-07T05:00:41.350Z,1017.49
2022-10-07T05:01:20.317Z,1017.48
2022-10-07T05:02:20.305Z,1017.50
2022-10-07T05:03:20.190Z,1017.51
2022-10-07T05:04:41.139Z,1017.49
2022-10-07T05:05:41.107Z,1017.47
2022-10-07T05:06:20.077Z,1017.49
2022-10-07T05:07:20.046Z,1017.42
2022-10-07T05:08:20.004Z,1017.42
2022-10-07T05:09:40.964Z,1017.38
2022-10-07T05:10:40.925Z,1017.38
2022-10-07T05:11:19.896Z,1017.37
2022-10-07T05:12:19.855Z,1017.38
2022-10-07T05:13:19.826Z,1017.36
2022-10-07T05:14:40.780Z,1017.38
2022-10-07T05:15:40.748Z,1017.38
2022-10-07T05:16:19.772Z,1017.40
2022-10-07T05:17:19.677Z,1017.36
2022-10-07T05:18:19.644Z,1017.39
2022-10-07T05:19:40.599Z,1017.36
2022-10-07T05:20:40.560Z,1017.37
2022-10-07T05:21:19.529Z,1017.37
2022-10-07T05:22:19.489Z,1017.34
2022-10-07T05:23:22.217Z,1017.34
2022-10-07T05:24:40.415Z,1017.37
2022-10-07T05:25:40.380Z,1017.41
2022-10-07T05:26:19.351Z,1017.42
2022-10-07T05:27:19.315Z,1017.41
2022-10-07T05:28:19.310Z,1017.36
2022-10-07T05:29:40.243Z,1017.40
2022-10-07T05:30:40.202Z,1017.39
2022-10-07T05:31:19.233Z,1017.35
2022-10-07T05:32:19.128Z,1017.38
2022-10-07T05:33:19.096Z,1017.37
2022-10-07T05:34:40.057Z,1017.34
2022-10-07T05:35:40.019Z,1017.41
2022-10-07T05:36:18.982Z,1017.37
2022-10-07T05:37:18.954Z,1017.37
2022-10-07T05:38:18.913Z,1017.40
2022-10-07T05:39:39.873Z,1017.37
2022-10-07T05:40:39.833Z,1017.41
2022-10-07T05:41:18.808Z,1017.36
2022-10-07T05:42:18.790Z,1017.37
2022-10-07T05:43:18.728Z,1017.40
2022-10-07T05:44:39.694Z,1017.38
2022-10-07T05:45:39.700Z,1017.35
2022-10-07T05:46:18.652Z,1017.35
2022-10-07T05:47:18.652Z,1017.30
2022-10-07T05:48:18.553Z,1017.35
2022-10-07T05:49:39.509Z,1017.33
2022-10-07T05:50:39.479Z,1017.30
2022-10-07T05:51:18.446Z,1017.33
2022-10-07T05:52:18.402Z,1017.28
2022-10-07T05:53:18.370Z,1017.30
2022-10-07T05:54:39.340Z,1017.24
2022-10-07T05:55:40.216Z,1017.24
2022-10-07T05:56:18.263Z,1017.20
2022-10-07T05:57:18.224Z,1017.23
2022-10-07T05:58:18.199Z,1017.20
2022-10-07T05:59:39.152Z,1017.21
2022-10-07T06:00:39.104Z,1017.15
2022-10-07T06:01:18.078Z,1017.16
2022-10-07T06:02:18.143Z,1017.11
2022-10-07T06:03:18.063Z,1017.09
2022-10-07T06:04:38.962Z,1017.06
2022-10-07T06:05:38.925Z,1017.05
2022-10-07T06:06:17.894Z,1017.05
2022-10-07T06:07:21.353Z,1017.08
2022-10-07T06:08:17.820Z,1017.05
2022-10-07T06:09:38.783Z,1017.08
2022-10-07T06:10:38.738Z,1017.10
2022-10-07T06:11:17.717Z,1017.08
2022-10-07T06:12:17.687Z,1017.05
2022-10-07T06:13:17.639Z,1017.06
2022-10-07T06:14:38.607Z,1017.03
2022-10-07T06:15:38.567Z,1017.04
2022-10-07T06:16:17.587Z,1017.07
2022-10-07T06:17:17.492Z,1017.07
2022-10-07T06:18:17.472Z,1017.07
2022-10-07T06:19:38.418Z,1017.05
2022-10-07T06:20:38.376Z,1017.09
2022-10-07T06:21:17.345Z,1017.09
2022-10-07T06:22:17.311Z,1017.07
2022-10-07T06:23:17.272Z,1017.10
2022-10-07T06:24:38.232Z,1017.10
2022-10-07T06:25:38.200Z,1017.10
2022-10-07T06:26:17.163Z,1017.08
2022-10-07T06:27:17.133Z,1017.08
2022-10-07T06:28:17.144Z,1017.08
2022-10-07T06:29:38.055Z,1017.06
2022-10-07T06:30:38.059Z,1017.05
2022-10-07T06:31:17.034Z,1017.08
2022-10-07T06:32:16.951Z,1017.09
2022-10-07T06:33:16.922Z,1017.13
2022-10-07T06:34:37.869Z,1017.16
2022-10-07T06:35:37.845Z,1017.14
2022-10-07T06:36:16.802Z,1017.17
2022-10-07T06:37:16.778Z,1017.18
2022-10-07T06:38:16.730Z,1017.19
2022-10-07T06:39:37.694Z,1017.20
2022-10-07T06:40:37.666Z,1017.18
2022-10-07T06:41:16.624Z,1017.18
2022-10-07T06:42:16.601Z,1017.17
2022-10-07T06:43:16.552Z,1017.15
2022-10-07T06:44:37.514Z,1017.18
2022-10-07T06:45:37.513Z,1017.17
2022-10-07T06:46:16.526Z,1017.16
2022-10-07T06:47:16.411Z,1017.20
2022-10-07T06:48:16.380Z,1017.18
2022-10-07T06:49:37.329Z,1017.21
2022-10-07T06:50:37.289Z,1017.20
2022-10-07T06:51:16.261Z,1017.22
2022-10-07T06:52:16.226Z,1017.22
2022-10-07T06:53:16.192Z,1017.22
2022-10-07T06:54:37.148Z,1017.19
2022-10-07T06:55:37.114Z,1017.21
2022-10-07T06:56:16.094Z,1017.19
2022-10-07T06:57:43.739Z,1017.18
2022-10-07T06:58:16.003Z,1017.19
2022-10-07T06:59:36.969Z,1017.19
2022-10-07T07:00:36.938Z,1017.19
2022-10-07T07:01:15.956Z,1017.20
2022-10-07T07:02:15.912Z,1017.22
2022-10-07T07:03:15.838Z,1017.23
2022-10-07T07:04:36.789Z,1017.20
2022-10-07T07:05:40.093Z,1017.21
2022-10-07T07:06:15.721Z,1017.23
2022-10-07T07:07:15.687Z,1017.24
2022-10-07T07:08:15.659Z,1017.24
2022-10-07T07:09:36.616Z,1017.24
2022-10-07T07:10:36.572Z,1017.21
2022-10-07T07:11:15.549Z,1017.22
2022-10-07T07:12:15.541Z,1017.19
2022-10-07T07:13:15.471Z,1017.22
2022-10-07T07:14:36.441Z,1017.18
2022-10-07T07:15:36.548Z,1017.20
2022-10-07T07:16:15.687Z,1017.16
2022-10-07T07:17:15.365Z,1017.16
2022-10-07T07:18:15.283Z,1017.16
2022-10-07T07:19:36.243Z,1017.17
2022-10-07T07:20:36.219Z,1017.17
2022-10-07T07:21:15.179Z,1017.18
2022-10-07T07:22:15.141Z,1017.16
2022-10-07T07:23:15.106Z,1017.17
2022-10-07T07:24:36.069Z,1017.17
2022-10-07T07:25:36.032Z,1017.20
2022-10-07T07:26:14.996Z,1017.19
2022-10-07T07:27:14.961Z,1017.21
2022-10-07T07:28:14.983Z,1017.21
2022-10-07T07:29:35.891Z,1017.23
2022-10-07T07:30:35.895Z,1017.23
2022-10-07T07:31:14.860Z,1017.23
2022-10-07T07:32:14.786Z,1017.21
2022-10-07T07:33:14.743Z,1017.24
2022-10-07T07:34:35.716Z,1017.23
2022-10-07T07:35:35.677Z,1017.21
2022-10-07T07:36:14.637Z,1017.19
2022-10-07T07:37:14.616Z,1017.21
2022-10-07T07:38:14.565Z,1017.20
2022-10-07T07:39:35.535Z,1017.16
2022-10-07T07:40:35.503Z,1017.13
2022-10-07T07:41:14.463Z,1017.12
2022-10-07T07:42:14.423Z,1017.13
2022-10-07T07:43:14.397Z,1017.17
2022-10-07T07:44:35.360Z,1017.14
2022-10-07T07:45:35.325Z,1017.13
2022-10-07T07:46:14.312Z,1017.12
2022-10-07T07:47:14.267Z,1017.13
2022-10-07T07:48:14.213Z,1017.13
2022-10-07T07:49:35.183Z,1017.16
2022-10-07T07:50:35.142Z,1017.14
2022-10-07T07:51:14.103Z,1017.11
2022-10-07T07:52:14.070Z,1017.13
2022-10-07T07:53:14.045Z,1017.14
2022-10-07T07:54:34.999Z,1017.11
2022-10-07T07:55:34.970Z,1017.12
2022-10-07T07:56:13.941Z,1017.15
2022-10-07T07:57:13.900Z,1017.10
2022-10-07T07:58:13.858Z,1017.14
2022-10-07T07:59:34.834Z,1017.13
2022-10-07T08:00:34.807Z,1017.18
2022-10-07T08:01:13.839Z,1017.12
2022-10-07T08:02:14.369Z,1017.14
2022-10-07T08:03:13.687Z,1017.14
2022-10-07T08:04:34.642Z,1017.14
2022-10-07T08:05:34.615Z,1017.11
2022-10-07T08:06:13.595Z,1017.12
2022-10-07T08:07:13.541Z,1017.07
2022-10-07T08:08:13.505Z,1017.08
2022-10-07T08:09:34.470Z,1017.04
2022-10-07T08:10:34.428Z,1017.05
2022-10-07T08:11:13.398Z,1017.04
2022-10-07T08:12:13.364Z,1017.04
2022-10-07T08:13:13.377Z,1017.02
2022-10-07T08:14:34.296Z,1017.00
2022-10-07T08:15:34.317Z,1016.99
2022-10-07T08:16:13.336Z,1016.99
2022-10-07T08:17:13.367Z,1016.98
2022-10-07T08:18:13.154Z,1016.97
2022-10-07T08:19:34.115Z,1016.95
2022-10-07T08:20:34.081Z,1016.99
2022-10-07T08:21:13.070Z,1016.96
2022-10-07T08:22:13.019Z,1016.96
2022-10-07T08:23:12.984Z,1016.99
2022-10-07T08:24:33.939Z,1016.99
2022-10-07T08:25:33.909Z,1016.95
2022-10-07T08:26:12.891Z,1016.95
2022-10-07T08:27:12.859Z,1016.93
2022-10-07T08:28:12.834Z,1016.93
2022-10-07T08:29:33.769Z,1016.91
2022-10-07T08:30:33.740Z,1016.91
2022-10-07T08:31:12.804Z,1016.91
2022-10-07T08:32:12.673Z,1016.91
2022-10-07T08:33:12.630Z,1016.92
2022-10-07T08:34:33.596Z,1016.93
2022-10-07T08:35:33.563Z,1016.87
2022-10-07T08:36:12.527Z,1016.90
2022-10-07T08:37:12.509Z,1016.92
2022-10-07T08:38:14.535Z,1016.87
2022-10-07T08:39:33.423Z,1016.87
2022-10-07T08:40:33.389Z,1016.86
2022-10-07T08:41:12.894Z,1016.89
2022-10-07T08:42:12.323Z,1016.84
2022-10-07T08:43:12.306Z,1016.85
2022-10-07T08:44:33.252Z,1016.85
2022-10-07T08:45:33.219Z,1016.85
2022-10-07T08:46:12.241Z,1016.85
2022-10-07T08:47:12.165Z,1016.85
2022-10-07T08:48:12.121Z,1016.85
2022-10-07T08:49:33.085Z,1016.88
2022-10-07T08:50:33.043Z,1016.82
2022-10-07T08:51:12.023Z,1016.81
2022-10-07T08:52:11.995Z,1016.81
2022-10-07T08:53:11.949Z,1016.81
2022-10-07T08:54:32.905Z,1016.81
2022-10-07T08:55:32.880Z,1016.76
2022-10-07T08:56:11.855Z,1016.74
2022-10-07T08:57:11.828Z,1016.72
2022-10-07T08:58:11.791Z,1016.72
2022-10-07T08:59:32.739Z,1016.71
2022-10-07T09:00:32.712Z,1016.68
2022-10-07T09:01:11.697Z,1016.70
2022-10-07T09:02:11.645Z,1016.64
2022-10-07T09:03:11.622Z,1016.69
2022-10-07T09:04:32.591Z,1016.66
2022-10-07T09:05:32.544Z,1016.62
2022-10-07T09:06:11.508Z,1016.59
2022-10-07T09:07:11.479Z,1016.60
2022-10-07T09:08:11.454Z,1016.59
2022-10-07T09:09:32.425Z,1016.54
2022-10-07T09:10:32.378Z,1016.51
2022-10-07T09:11:11.349Z,1016.51
2022-10-07T09:12:11.309Z,1016.52
2022-10-07T09:13:11.275Z,1016.47
2022-10-07T09:14:32.237Z,1016.48
2022-10-07T09:15:32.257Z,1016.51
2022-10-07T09:16:11.200Z,1016.49
2022-10-07T09:17:11.137Z,1016.50
2022-10-07T09:18:11.105Z,1016.50
2022-10-07T09:19:32.070Z,1016.54
2022-10-07T09:20:32.037Z,1016.49
2022-10-07T09:21:11.004Z,1016.45
2022-10-07T09:22:10.978Z,1016.44
2022-10-07T09:23:10.940Z,1016.43
2022-10-07T09:24:31.980Z,1016.42
2022-10-07T09:25:31.872Z,1016.40
2022-10-07T09:26:10.853Z,1016.43
2022-10-07T09:27:10.817Z,1016.39
2022-10-07T09:28:10.808Z,1016.35
2022-10-07T09:29:31.744Z,1016.41
2022-10-07T09:30:31.705Z,1016.35
2022-10-07T09:31:10.738Z,1016.34
2022-10-07T09:32:10.642Z,1016.36
2022-10-07T09:33:10.606Z,1016.33
2022-10-07T09:34:31.569Z,1016.32
2022-10-07T09:35:31.539Z,1016.27
2022-10-07T09:36:10.514Z,1016.29
2022-10-07T09:37:10.484Z,1016.28
2022-10-07T09:38:10.445Z,1016.30
2022-10-07T09:39:31.409Z,1016.29
2022-10-07T09:40:31.386Z,1016.30
2022-10-07T09:41:10.356Z,1016.31
2022-10-07T09:42:10.320Z,1016.30
2022-10-07T09:43:10.274Z,1016.31
2022-10-07T09:44:31.242Z,1016.28
2022-10-07T09:45:31.211Z,1016.29
2022-10-07T09:46:10.229Z,1016.26
2022-10-07T09:47:10.327Z,1016.22
2022-10-07T09:48:10.123Z,1016.27
2022-10-07T09:49:31.083Z,1016.19
2022-10-07T09:50:31.048Z,1016.16
2022-10-07T09:51:10.021Z,1016.17
2022-10-07T09:52:09.984Z,1016.20
2022-10-07T09:53:09.952Z,1016.17
2022-10-07T09:54:30.925Z,1016.14
2022-10-07T09:55:30.896Z,1016.12
2022-10-07T09:56:09.864Z,1016.12
2022-10-07T09:57:09.828Z,1016.10
2022-10-07T09:58:09.790Z,1016.12
2022-10-07T09:59:30.752Z,1016.12
2022-10-07T10:00:30.758Z,1016.09
2022-10-07T10:01:09.748Z,1016.14
2022-10-07T10:02:09.722Z,1016.08
2022-10-07T10:03:09.659Z,1016.07
2022-10-07T10:04:30.622Z,1016.09
2022-10-07T10:05:30.558Z,1016.13
2022-10-07T10:06:09.553Z,1016.10
2022-10-07T10:07:09.516Z,1016.06
2022-10-07T10:08:09.478Z,1016.05
2022-10-07T10:09:30.450Z,1016.04
2022-10-07T10:10:30.410Z,1015.96
2022-10-07T10:11:09.375Z,1016.01
2022-10-07T10:12:09.353Z,1015.92
2022-10-07T10:13:09.332Z,1015.93
2022-10-07T10:14:30.279Z,1015.92
2022-10-07T10:15:30.246Z,1015.92
2022-10-07T10:16:09.282Z,1015.95
2022-10-07T10:17:09.190Z,1015.91
2022-10-07T10:18:09.171Z,1015.90
2022-10-07T10:19:34.919Z,1015.86
2022-10-07T10:20:30.088Z,1015.88
2022-10-07T10:21:09.087Z,1015.81
2022-10-07T10:22:09.030Z,1015.85
2022-10-07T10:23:09.003Z,1015.85
2022-10-07T10:24:29.964Z,1015.84
2022-10-07T10:25:29.957Z,1015.81
2022-10-07T10:26:08.915Z,1015.82
2022-10-07T10:27:08.880Z,1015.80
2022-10-07T10:28:08.901Z,1015.80
2022-10-07T10:29:29.824Z,1015.79
2022-10-07T10:30:29.780Z,1015.84
2022-10-07T10:31:08.827Z,1015.80
2022-10-07T10:32:08.800Z,1015.79
2022-10-07T10:33:08.692Z,1015.77
2022-10-07T10:34:29.656Z,1015.77
2022-10-07T10:35:29.622Z,1015.74
2022-10-07T10:36:08.614Z,1015.76
2022-10-07T10:37:13.675Z,1015.76
2022-10-07T10:38:08.537Z,1015.72
2022-10-07T10:39:29.557Z,1015.67
2022-10-07T10:40:29.503Z,1015.70
2022-10-07T10:41:08.478Z,1015.67
2022-10-07T10:42:08.416Z,1015.65
2022-10-07T10:43:08.393Z,1015.67
2022-10-07T10:44:29.355Z,1015.68
2022-10-07T10:45:29.335Z,1015.67
2022-10-07T10:46:08.327Z,1015.70
2022-10-07T10:47:08.342Z,1015.66
2022-10-07T10:48:08.240Z,1015.65
2022-10-07T10:49:29.204Z,1015.65
2022-10-07T10:50:29.196Z,1015.58
2022-10-07T10:51:08.152Z,1015.57
2022-10-07T10:52:13.133Z,1015.50
2022-10-07T10:53:08.082Z,1015.53
2022-10-07T10:54:29.056Z,1015.49
2022-10-07T10:55:29.041Z,1015.54
2022-10-07T10:56:07.998Z,1015.49
2022-10-07T10:57:07.969Z,1015.48
2022-10-07T10:58:07.945Z,1015.45
2022-10-07T10:59:28.903Z,1015.43
2022-10-07T11:00:28.882Z,1015.42
2022-10-07T11:01:07.849Z,1015.39
2022-10-07T11:02:07.861Z,1015.36
2022-10-07T11:03:07.840Z,1015.35
2022-10-07T11:04:28.763Z,1015.34
2022-10-07T11:05:28.739Z,1015.34
2022-10-07T11:06:07.730Z,1015.31
2022-10-07T11:07:07.676Z,1015.30
2022-10-07T11:08:07.653Z,1015.33
2022-10-07T11:09:30.753Z,1015.27
2022-10-07T11:10:28.584Z,1015.28
2022-10-07T11:11:07.566Z,1015.25
2022-10-07T11:12:07.529Z,1015.25
2022-10-07T11:13:07.501Z,1015.20
2022-10-07T11:14:28.475Z,1015.20
2022-10-07T11:15:28.445Z,1015.23
2022-10-07T11:16:07.539Z,1015.20
2022-10-07T11:17:07.412Z,1015.16
2022-10-07T11:18:07.363Z,1015.15
2022-10-07T11:19:28.338Z,1015.14
2022-10-07T11:20:28.303Z,1015.15
2022-10-07T11:21:07.272Z,1015.09
2022-10-07T11:22:07.290Z,1015.08
2022-10-07T11:23:07.290Z,1015.05
2022-10-07T11:24:28.189Z,1015.03
2022-10-07T11:25:28.170Z,1015.05
2022-10-07T11:26:07.134Z,1015.00
2022-10-07T11:27:07.101Z,1015.03
2022-10-07T11:28:07.177Z,1014.99
2022-10-07T11:29:28.047Z,1014.96
2022-10-07T11:30:28.019Z,1014.94
2022-10-07T11:31:07.050Z,1014.89
2022-10-07T11:32:06.960Z,1014.91
2022-10-07T11:33:06.929Z,1014.90
2022-10-07T11:34:27.907Z,1014.83
2022-10-07T11:35:27.875Z,1014.81
2022-10-07T11:36:06.849Z,1014.80
2022-10-07T11:37:06.823Z,1014.80
2022-10-07T11:38:06.787Z,1014.77
2022-10-07T11:39:27.764Z,1014.73
2022-10-07T11:40:29.100Z,1014.73
2022-10-07T11:41:06.705Z,1014.71
2022-10-07T11:42:06.694Z,1014.65
2022-10-07T11:43:06.651Z,1014.67
2022-10-07T11:44:27.622Z,1014.63
2022-10-07T11:45:27.608Z,1014.59
2022-10-07T11:46:11.191Z,1014.58
2022-10-07T11:47:06.544Z,1014.55
2022-10-07T11:48:06.516Z,1014.51
2022-10-07T11:49:27.489Z,1014.53
2022-10-07T11:50:27.460Z,1014.50
2022-10-07T11:51:06.446Z,1014.48
2022-10-07T11:52:06.428Z,1014.50
2022-10-07T11:53:06.379Z,1014.53
2022-10-07T11:54:27.348Z,1014.50
2022-10-07T11:55:27.319Z,1014.52
2022-10-07T11:56:06.303Z,1014.53
2022-10-07T11:57:06.269Z,1014.49
2022-10-07T11:58:06.232Z,1014.39
2022-10-07T11:59:27.205Z,1014.42
2022-10-07T12:00:27.182Z,1014.40
2022-10-07T12:01:06.152Z,1014.38
2022-10-07T12:02:06.178Z,1014.34
2022-10-07T12:03:06.129Z,1014.29
2022-10-07T12:04:27.627Z,1014.30
2022-10-07T12:05:27.040Z,1014.28